Time;durP1;ratioP1;P1;durP2;ratioP2;P2;SDS_P1;SDS_P2;PMS_P1;PMS_P2;Temp;Humidity;BMP_temperature;BMP_pressure;BME280_temperature;BME280_humidity;BME280_pressure;Samples;Min_cycle;Max_cycle;Signal;HPM_P1;HPM_P2
2022/03/14 00:02:02;;;;;;;13.60;8.30;;;;;;;3.53;24.82;98312.28;12880203;22;20035;-80
2022/03/14 00:07:23;;;;;;;13.85;8.27;;;;;;;3.41;24.57;98317.31;12877755;22;20004;-83
2022/03/14 00:12:44;;;;;;;15.45;8.82;;;;;;;3.34;25.43;98333.75;12877665;22;20017;-79
2022/03/14 00:18:06;;;;;;;15.10;8.82;;;;;;;3.30;25.14;98322.31;12877187;22;20020;-82
2022/03/14 00:23:27;;;;;;;17.75;8.65;;;;;;;3.22;25.97;98321.47;12899694;22;20000;-78
2022/03/14 00:28:52;;;;;;;18.77;8.25;;;;;;;3.17;25.81;98325.78;12862132;22;20012;-79
2022/03/14 00:34:14;;;;;;;14.15;8.45;;;;;;;3.06;26.30;98317.72;12860289;22;20015;-80
2022/03/14 00:39:36;;;;;;;14.70;8.35;;;;;;;2.98;25.94;98320.38;12881726;22;20064;-80
2022/03/14 00:58:07;;;;;;;12.95;8.00;;;;;;;2.60;27.90;98339.09;12733834;23;20984;31
2022/03/14 01:03:29;;;;;;;15.35;8.50;;;;;;;2.52;27.61;98347.25;12686274;23;20003;-79
2022/03/14 02:50:30;;;;;;;10.73;7.47;;;;;;;2.05;28.91;98371.75;12794613;22;20038;31
2022/03/14 02:55:53;;;;;;;12.65;7.47;;;;;;;2.07;29.28;98377.47;12693982;23;20018;-82
2022/03/14 03:01:15;;;;;;;9.20;6.05;;;;;;;2.04;29.46;98391.53;12653745;23;20022;-82
2022/03/14 03:06:37;;;;;;;11.52;6.90;;;;;;;2.05;28.89;98393.03;12594249;23;20018;-82
2022/03/14 03:12:32;;;;;;;11.27;7.00;;;;;;;1.98;29.42;98389.59;12711086;22;20020;31
2022/03/14 03:17:53;;;;;;;11.02;6.50;;;;;;;1.97;29.29;98387.38;12714198;23;20029;-82
2022/03/14 03:23:15;;;;;;;10.90;6.82;;;;;;;1.95;29.44;98400.91;12734326;23;20002;-82
2022/03/14 03:47:24;;;;;;;12.15;6.63;;;;;;;1.72;29.71;98416.94;12905170;22;20232;-81
2022/03/14 03:52:45;;;;;;;10.23;6.35;;;;;;;1.69;29.71;98418.75;12797047;22;20004;-83
2022/03/14 03:58:07;;;;;;;11.38;6.97;;;;;;;1.70;29.67;98431.22;12879267;23;20027;-81
2022/03/14 04:03:28;;;;;;;10.45;6.15;;;;;;;1.67;30.10;98437.78;12894951;23;20011;-82
2022/03/14 04:08:50;;;;;;;10.50;6.72;;;;;;;1.63;29.90;98436.56;12878192;22;20028;-83
2022/03/14 04:15:09;;;;;;;12.00;7.10;;;;;;;1.58;29.75;98438.13;12891301;22;20024;31
2022/03/14 04:46:38;;;;;;;13.00;6.87;;;;;;;1.48;30.32;98474.78;12803927;22;20515;31
2022/03/14 04:52:00;;;;;;;10.63;6.40;;;;;;;1.35;30.42;98478.13;12792241;22;20028;-80
2022/03/14 04:57:22;;;;;;;9.73;6.10;;;;;;;1.24;30.58;98473.47;12962096;22;20036;-80
2022/03/14 05:02:43;;;;;;;10.95;6.93;;;;;;;1.16;30.42;98489.06;12922640;22;20005;-79
2022/03/14 05:08:05;;;;;;;11.70;6.75;;;;;;;1.12;30.93;98494.84;12789916;22;20004;-78
2022/03/14 05:13:27;;;;;;;12.13;6.68;;;;;;;1.10;31.14;98505.59;12900035;23;20076;-78
2022/03/14 05:18:49;;;;;;;13.35;6.80;;;;;;;1.14;30.97;98508.81;12857649;23;20005;-82
2022/03/14 05:43:10;;;;;;;13.68;7.22;;;;;;;3.93;29.81;98544.22;12906681;22;20008;-79
2022/03/14 06:20:12;;;;;;;13.85;8.38;;;;;;;14.79;21.80;98568.66;12807567;22;20028;-84
2022/03/14 06:25:36;;;;;;;13.40;7.60;;;;;;;16.41;20.47;98573.56;12851338;23;20032;-84
2022/03/14 06:30:57;;;;;;;13.70;8.15;;;;;;;17.78;19.00;98573.38;12875460;23;20008;-81
2022/03/14 06:36:18;;;;;;;14.98;7.85;;;;;;;19.32;17.51;98583.09;12756855;22;20025;-81
2022/03/14 06:41:49;;;;;;;15.15;8.25;;;;;;;20.47;16.50;98586.81;12821973;23;20028;-85
2022/03/14 06:47:11;;;;;;;12.82;7.63;;;;;;;21.74;14.90;98592.50;12820844;23;20016;-88
2022/03/14 06:52:32;;;;;;;13.30;7.22;;;;;;;22.36;14.29;98613.94;12820044;23;20020;-85
2022/03/14 06:57:54;;;;;;;12.15;8.50;;;;;;;22.92;13.83;98625.81;12839700;23;20317;-87
2022/03/14 07:03:15;;;;;;;11.43;7.13;;;;;;;20.23;13.60;98626.16;12813752;23;20017;-86
2022/03/14 07:08:35;;;;;;;12.52;7.68;;;;;;;21.67;11.95;98629.22;12778178;23;20020;-86
2022/03/14 07:13:56;;;;;;;10.82;7.18;;;;;;;22.67;10.95;98634.91;12797921;23;20017;-87
2022/03/14 07:19:17;;;;;;;10.40;6.95;;;;;;;21.05;11.94;98641.66;12777962;23;20298;-85
2022/03/14 07:24:38;;;;;;;8.82;6.78;;;;;;;19.53;12.18;98638.56;12757476;23;20040;-85
2022/03/14 07:29:59;;;;;;;12.75;7.18;;;;;;;18.98;13.17;98653.66;12778071;23;20017;-85
2022/03/14 07:35:21;;;;;;;10.82;7.03;;;;;;;19.47;14.22;98664.47;12780316;23;20024;-88
2022/03/14 07:40:42;;;;;;;8.77;5.80;;;;;;;22.00;13.57;98679.47;12792298;23;20036;-88
2022/03/14 07:46:03;;;;;;;9.98;6.50;;;;;;;26.50;10.25;98686.63;12802243;23;20017;-87
2022/03/14 07:51:24;;;;;;;7.88;5.93;;;;;;;31.80;7.30;98697.81;12760923;23;20459;-88
2022/03/14 07:56:45;;;;;;;11.02;5.88;;;;;;;34.09;4.92;98714.44;12782136;23;20013;-88
2022/03/14 08:02:06;;;;;;;7.90;5.32;;;;;;;34.81;3.83;98712.06;12760050;23;20100;-86
2022/03/14 08:07:29;;;;;;;7.25;5.70;;;;;;;36.49;3.84;98707.72;12761077;23;20344;-86
2022/03/14 08:12:53;;;;;;;6.43;5.30;;;;;;;38.51;2.87;98705.50;12781673;23;20091;-86
2022/03/14 08:18:14;;;;;;;6.53;5.55;;;;;;;38.26;2.58;98711.38;12740167;23;20021;-86
2022/03/14 08:23:36;;;;;;;7.05;5.65;;;;;;;39.36;2.04;98723.28;12760048;23;20060;-86
2022/03/14 08:28:57;;;;;;;7.65;5.60;;;;;;;40.27;2.24;98731.13;12760774;23;20096;-86
2022/03/14 08:34:22;;;;;;;7.15;5.45;;;;;;;40.93;2.07;98735.22;12782842;23;20076;-85
2022/03/14 08:39:43;;;;;;;6.07;4.75;;;;;;;41.50;1.38;98741.69;12760457;23;20025;-86
2022/03/14 08:45:04;;;;;;;6.60;4.85;;;;;;;39.35;1.58;98736.47;12780131;23;20309;-86
2022/03/14 08:50:25;;;;;;;5.07;4.57;;;;;;;38.86;1.20;98752.59;12759296;23;20024;-85
2022/03/14 08:55:46;;;;;;;7.90;4.85;;;;;;;39.92;1.36;98748.44;12758947;23;20017;-85
2022/03/14 09:01:07;;;;;;;5.50;4.40;;;;;;;39.80;1.34;98758.34;12759410;23;20048;-86
2022/03/14 09:06:28;;;;;;;6.53;5.10;;;;;;;40.60;1.08;98765.72;12760419;23;20021;-85
2022/03/14 09:11:49;;;;;;;5.43;4.72;;;;;;;41.89;1.10;98769.41;12779430;23;20469;-86
2022/03/14 09:17:10;;;;;;;5.10;4.60;;;;;;;40.84;1.07;98778.00;12775420;23;20021;-83
2022/03/14 09:22:30;;;;;;;6.93;5.15;;;;;;;41.00;1.17;98783.22;12754776;23;20391;-84
2022/03/14 09:27:51;;;;;;;6.00;5.40;;;;;;;41.33;1.06;98781.97;12737034;23;20436;-85
2022/03/14 09:33:14;;;;;;;9.40;5.10;;;;;;;39.69;1.34;98783.56;12759862;23;20017;-85
2022/03/14 09:38:35;;;;;;;8.50;4.80;;;;;;;39.78;1.49;98793.50;12759255;23;20136;-85
2022/03/14 09:43:57;;;;;;;7.45;4.63;;;;;;;39.46;1.75;98795.97;12758162;23;20013;-84
2022/03/14 09:49:18;;;;;;;8.05;4.28;;;;;;;39.63;1.47;98801.31;12779255;23;20013;-85
2022/03/14 09:54:39;;;;;;;4.55;3.85;;;;;;;41.65;1.39;98786.47;12799196;23;20013;-86
2022/03/14 10:00:00;;;;;;;4.40;4.00;;;;;;;42.79;1.03;98775.63;12758429;23;20020;-85
2022/03/14 10:05:22;;;;;;;5.32;4.10;;;;;;;43.60;0.61;98790.84;12764664;23;20027;-86
2022/03/14 10:10:44;;;;;;;6.55;4.22;;;;;;;38.45;1.22;98796.09;12758600;23;20017;-85
2022/03/14 10:16:25;;;;;;;7.18;5.25;;;;;;;29.46;3.63;98808.53;12762714;23;20092;-86
2022/03/14 10:21:46;;;;;;;6.53;5.00;;;;;;;25.52;5.33;98814.53;12778391;23;20100;-84
2022/03/14 10:27:07;;;;;;;6.63;5.35;;;;;;;24.95;5.58;98807.28;12757952;23;20021;-83
2022/03/14 10:32:30;;;;;;;9.60;6.28;;;;;;;28.95;5.44;98819.50;12778668;23;20044;-84
2022/03/14 10:37:58;;;;;;;11.07;5.53;;;;;;;30.29;4.68;98814.22;12778226;23;20375;-84
2022/03/14 10:43:31;;;;;;;9.43;6.07;;;;;;;27.10;5.35;98831.69;12759273;23;20032;-84
2022/03/14 10:48:52;;;;;;;10.63;6.45;;;;;;;26.28;6.08;98832.09;12779496;23;20024;-83
2022/03/14 10:54:16;;;;;;;7.53;6.40;;;;;;;29.05;5.58;98825.38;12758544;23;20021;-84
2022/03/14 10:59:44;;;;;;;9.23;6.50;;;;;;;30.25;4.88;98828.59;12777659;23;20340;-84
2022/03/14 11:05:09;;;;;;;9.27;8.05;;;;;;;29.01;5.52;98826.03;12716207;23;20021;-83
2022/03/14 11:10:38;;;;;;;7.82;6.63;;;;;;;27.23;6.19;98818.34;12737817;23;20013;-83
2022/03/14 11:15:59;;;;;;;10.07;6.88;;;;;;;25.93;6.83;98824.84;12736816;23;20309;-85
2022/03/14 11:21:24;;;;;;;8.00;7.00;;;;;;;24.25;7.02;98802.44;12777994;23;20021;-84
2022/03/14 11:26:46;;;;;;;10.55;7.03;;;;;;;23.99;7.34;98790.22;12799368;23;20467;-84
2022/03/14 11:32:09;;;;;;;9.45;6.88;;;;;;;23.88;7.80;98797.00;12778579;23;20021;-85
2022/03/14 11:37:50;;;;;;;11.65;7.30;;;;;;;23.51;8.10;98790.09;12781720;23;20025;-83
2022/03/14 11:43:11;;;;;;;9.25;6.68;;;;;;;22.03;8.32;98767.69;12757029;23;20048;-84
2022/03/14 11:48:34;;;;;;;9.15;7.18;;;;;;;21.40;9.11;98775.13;12820348;23;20017;-85
2022/03/14 11:53:56;;;;;;;9.07;7.18;;;;;;;20.77;9.48;98774.56;12737174;23;20048;-85
2022/03/14 11:59:27;;;;;;;9.70;7.40;;;;;;;20.77;9.88;98811.44;12757864;23;20032;-83
2022/03/14 12:04:58;;;;;;;13.10;8.27;;;;;;;21.02;10.03;98813.97;12761682;23;20028;-83
2022/03/14 12:10:26;;;;;;;13.68;7.97;;;;;;;21.03;10.31;98803.34;12776691;23;20013;-83
2022/03/14 12:15:48;;;;;;;11.18;7.75;;;;;;;20.89;10.71;98831.84;12754456;23;20048;-86
2022/03/14 12:21:45;;;;;;;10.23;7.35;;;;;;;20.81;11.02;98820.88;12777205;23;20029;-81
2022/03/14 12:27:17;;;;;;;12.75;8.20;;;;;;;20.30;11.43;98821.38;12778676;23;20431;-83
2022/03/14 12:32:38;;;;;;;10.15;8.25;;;;;;;20.56;11.13;98826.84;12760550;23;20064;-84
2022/03/14 12:38:13;;;;;;;12.32;7.65;;;;;;;21.19;11.47;98809.72;12822442;23;20024;-84
2022/03/14 12:43:34;;;;;;;11.05;7.88;;;;;;;21.07;11.37;98809.94;12760657;23;20043;-84
2022/03/14 12:48:55;;;;;;;10.20;8.20;;;;;;;21.26;12.09;98808.63;12779923;23;20013;-83
2022/03/14 12:54:30;;;;;;;15.35;8.25;;;;;;;21.23;12.36;98804.22;12759390;23;20017;-85
2022/03/14 12:59:58;;;;;;;9.73;8.07;;;;;;;20.35;12.86;98821.56;12760615;23;20017;-84
2022/03/14 13:05:20;;;;;;;9.75;7.82;;;;;;;20.00;14.15;98814.28;12738302;23;20017;-83
2022/03/14 13:10:46;;;;;;;10.32;7.90;;;;;;;20.46;14.27;98812.16;12797276;23;20013;-84
2022/03/14 13:16:12;;;;;;;11.80;7.82;;;;;;;19.99;14.93;98829.84;12778993;23;20013;-84
2022/03/14 13:21:33;;;;;;;12.18;7.85;;;;;;;19.14;15.98;98815.03;12801029;23;20384;-85
2022/03/14 13:26:53;;;;;;;11.30;7.28;;;;;;;18.42;16.91;98829.59;12779439;23;20017;-83
2022/03/14 13:32:18;;;;;;;10.57;7.45;;;;;;;18.37;17.31;98825.09;12780596;23;20017;-87
2022/03/14 13:37:46;;;;;;;16.27;6.95;;;;;;;18.52;18.21;98827.31;12800512;23;20013;-88
2022/03/14 13:43:07;;;;;;;10.98;6.15;;;;;;;18.60;19.86;98825.66;12760267;23;20024;-85
2022/03/14 13:48:28;;;;;;;7.68;5.05;;;;;;;18.78;19.26;98822.34;12778949;23;20020;-88
2022/03/14 13:53:49;;;;;;;12.50;5.68;;;;;;;18.76;20.05;98833.56;12779570;23;20313;-86
2022/03/14 13:59:28;;;;;;;6.45;4.97;;;;;;;18.43;20.59;98834.66;12759097;23;20025;-87
2022/03/14 14:04:52;;;;;;;7.40;4.88;;;;;;;18.16;20.75;98826.81;12766458;23;20020;-84
2022/03/14 14:10:13;;;;;;;6.50;4.68;;;;;;;17.58;22.00;98839.09;12758742;23;20494;-82
2022/03/14 14:15:45;;;;;;;6.47;3.83;;;;;;;16.97;23.65;98821.41;12780184;23;20320;-80
2022/03/14 14:21:16;;;;;;;8.55;4.45;;;;;;;16.93;24.25;98831.72;12783383;23;20020;-79
2022/03/14 14:26:37;;;;;;;3.95;3.10;;;;;;;16.74;24.78;98841.91;12807310;23;20017;-80
2022/03/14 14:32:17;;;;;;;6.50;3.10;;;;;;;16.27;26.49;98850.25;12799696;23;20021;-78
2022/03/14 14:37:38;;;;;;;4.68;3.03;;;;;;;15.46;27.98;98859.09;12834712;23;20019;-78
2022/03/14 14:42:59;;;;;;;5.45;2.15;;;;;;;15.21;29.17;98872.88;12792267;23;20025;-77
2022/03/14 14:48:19;;;;;;;4.03;1.10;;;;;;;15.55;29.62;98885.72;12832747;23;20017;-78
2022/03/14 14:53:41;;;;;;;1.65;0.60;;;;;;;15.56;30.30;98895.63;12813027;23;20020;-78
2022/03/14 14:59:03;;;;;;;1.20;0.50;;;;;;;15.39;31.33;98899.41;12854143;23;20017;-78
2022/03/14 15:04:24;;;;;;;2.60;0.30;;;;;;;15.67;31.08;98883.72;12821265;23;20013;-77
2022/03/14 15:09:50;;;;;;;2.38;0.40;;;;;;;15.74;30.59;98900.41;12795070;23;20013;-76
2022/03/14 15:15:12;;;;;;;1.88;0.32;;;;;;;15.72;30.88;98902.31;12793058;23;20020;-78
2022/03/14 15:20:32;;;;;;;1.38;0.35;;;;;;;15.41;30.82;98896.75;12812687;23;20020;-78
2022/03/14 15:25:53;;;;;;;0.68;0.30;;;;;;;15.23;31.56;98892.69;12831503;23;20024;-77
2022/03/14 15:31:14;;;;;;;0.73;0.50;;;;;;;14.98;32.55;98884.69;12811666;23;20045;-77
2022/03/14 15:36:37;;;;;;;1.15;0.50;;;;;;;14.71;32.01;98884.97;12790730;23;20013;-78
2022/03/14 15:41:58;;;;;;;1.98;0.70;;;;;;;14.25;32.83;98897.16;12798182;23;20021;-78
2022/03/14 15:47:19;;;;;;;2.63;0.77;;;;;;;14.02;33.39;98894.84;12806768;23;20017;-77
2022/03/14 15:52:40;;;;;;;1.38;0.70;;;;;;;14.01;33.71;98904.59;12791403;23;20032;-79
2022/03/14 15:58:04;;;;;;;1.30;0.57;;;;;;;13.96;33.56;98911.22;12810046;23;20017;-79
2022/03/14 16:03:25;;;;;;;2.17;0.80;;;;;;;13.89;34.44;98909.28;12823336;23;20077;-80
2022/03/14 16:08:46;;;;;;;2.95;0.90;;;;;;;14.08;33.88;98928.22;12823578;23;20016;-79
2022/03/14 16:14:08;;;;;;;2.28;0.90;;;;;;;14.10;33.99;98931.91;12804028;23;20017;-79
2022/03/14 16:19:29;;;;;;;6.28;1.20;;;;;;;13.96;34.68;98937.22;12804510;23;20028;-81
2022/03/14 16:24:54;;;;;;;2.00;1.10;;;;;;;13.67;34.57;98948.41;12809870;23;20075;-77
2022/03/14 16:30:15;;;;;;;2.25;1.10;;;;;;;13.37;35.77;98949.69;12790351;23;20017;-77
2022/03/14 16:35:36;;;;;;;2.90;1.45;;;;;;;13.00;37.10;98951.75;12801521;23;20036;-77
2022/03/14 16:40:59;;;;;;;2.90;1.20;;;;;;;12.76;36.87;98961.81;12783033;23;20025;-80
2022/03/14 16:46:19;;;;;;;2.75;1.33;;;;;;;12.54;36.87;98966.38;12788743;23;20013;-77
2022/03/14 16:51:40;;;;;;;4.45;1.83;;;;;;;12.33;38.01;98983.63;12800117;23;20021;-82
2022/03/14 16:57:01;;;;;;;3.40;1.55;;;;;;;12.27;37.93;98994.34;12779308;23;20040;-80
2022/03/14 17:02:23;;;;;;;2.60;1.20;;;;;;;12.27;38.28;98982.41;12819068;23;20025;-81
2022/03/14 17:07:44;;;;;;;2.80;1.40;;;;;;;12.17;38.20;99010.34;12801275;23;20077;-83
2022/03/14 17:13:10;;;;;;;4.55;1.67;;;;;;;12.00;38.79;99007.53;12820877;23;20027;-84
2022/03/14 17:18:31;;;;;;;4.03;1.58;;;;;;;11.87;38.62;99016.22;12778128;23;20037;-78
2022/03/14 17:23:53;;;;;;;3.53;1.90;;;;;;;11.70;39.13;99031.66;12790877;23;20013;-77
2022/03/14 17:29:15;;;;;;;8.70;1.80;;;;;;;11.60;39.46;99039.19;12796115;23;20013;-77
2022/03/14 17:34:38;;;;;;;4.10;1.75;;;;;;;11.59;39.39;99034.91;12793001;23;20025;-78
2022/03/14 17:39:59;;;;;;;6.20;2.45;;;;;;;11.57;40.29;99051.50;12758971;23;20033;-78
2022/03/14 17:45:20;;;;;;;6.95;2.97;;;;;;;11.55;39.97;99058.97;12817877;23;20072;-81
2022/03/14 17:50:41;;;;;;;6.40;2.70;;;;;;;11.45;39.91;99061.66;12825228;23;20044;-83
2022/03/14 17:56:02;;;;;;;5.60;3.15;;;;;;;11.32;40.46;99082.25;12824524;23;20021;-81
2022/03/14 18:01:24;;;;;;;6.95;3.22;;;;;;;11.25;41.17;99088.63;12824390;23;20067;-83
2022/03/14 18:06:45;;;;;;;5.47;3.38;;;;;;;11.19;40.98;99096.47;12804079;23;20049;-84
2022/03/14 18:12:07;;;;;;;8.70;4.90;;;;;;;10.99;40.87;99092.66;12827151;23;20076;-83
2022/03/14 18:17:28;;;;;;;8.77;4.13;;;;;;;10.79;41.14;99097.22;12806835;23;20032;-82
2022/03/14 18:22:49;;;;;;;10.45;4.07;;;;;;;10.67;41.45;99109.38;12805625;23;20060;-80
2022/03/14 18:28:11;;;;;;;9.23;4.13;;;;;;;10.52;41.65;99118.56;12776716;23;20021;-84
2022/03/14 18:33:35;;;;;;;8.45;3.75;;;;;;;10.39;42.19;99105.53;12781893;23;20025;-79
2022/03/14 18:39:01;;;;;;;9.05;3.85;;;;;;;10.37;42.18;99107.41;12818650;23;20028;-79
2022/03/14 18:44:44;;;;;;;7.13;3.37;;;;;;;10.34;42.36;99106.50;12830519;23;20023;-79
2022/03/14 18:50:06;;;;;;;8.50;3.35;;;;;;;10.26;42.35;99112.09;12825794;23;20017;-82
2022/03/14 18:55:48;;;;;;;10.27;3.65;;;;;;;10.11;42.70;99112.06;12794262;23;20021;-85
2022/03/14 19:01:10;;;;;;;6.93;3.42;;;;;;;9.94;43.01;99104.28;12827103;23;20064;-83
2022/03/14 19:06:31;;;;;;;4.85;3.03;;;;;;;9.81;42.99;99118.41;12786073;23;20020;-83
2022/03/14 19:11:53;;;;;;;8.23;3.97;;;;;;;9.67;43.51;99120.63;12808182;23;20044;-84
2022/03/14 19:17:14;;;;;;;8.85;3.70;;;;;;;9.55;43.63;99116.69;12809216;23;20036;-83
2022/03/14 19:22:35;;;;;;;6.13;3.30;;;;;;;9.45;43.75;99126.91;12828048;23;20433;-81
2022/03/14 19:27:56;;;;;;;8.52;3.60;;;;;;;9.37;43.77;99124.13;12828010;23;20021;-81
2022/03/14 19:33:17;;;;;;;4.28;2.72;;;;;;;9.30;44.20;99127.63;12787591;23;20072;-83
2022/03/14 19:38:37;;;;;;;7.35;3.00;;;;;;;9.21;44.45;99130.94;12789772;23;20065;-81
2022/03/14 19:43:59;;;;;;;7.00;2.38;;;;;;;9.12;44.51;99112.72;12831593;23;20036;-81
2022/03/14 19:49:21;;;;;;;7.07;2.58;;;;;;;9.10;44.92;99114.56;12830132;23;20388;-83
2022/03/14 19:54:42;;;;;;;6.93;2.55;;;;;;;9.10;44.85;99117.34;12811467;23;20032;-82
2022/03/14 20:00:03;;;;;;;6.90;3.60;;;;;;;9.11;44.80;99127.94;12788934;23;20045;-76
2022/03/14 20:05:32;;;;;;;8.27;3.10;;;;;;;9.08;45.16;99123.47;12796199;23;20021;-80
2022/03/14 20:10:53;;;;;;;7.47;3.38;;;;;;;9.07;45.60;99135.16;12810866;23;20005;-79
2022/03/14 20:22:35;;;;;;;10.10;4.28;;;;;;;8.84;45.56;99138.59;12838748;22;20028;-79
2022/03/14 20:28:02;;;;;;;10.27;5.38;;;;;;;8.72;45.80;99145.78;12780392;23;20044;-79
2022/03/14 20:33:24;;;;;;;8.57;3.55;;;;;;;8.64;45.78;99153.34;12780861;23;20032;-80
2022/03/14 20:38:46;;;;;;;9.35;3.65;;;;;;;8.57;46.35;99152.00;12792108;23;20012;-77
2022/03/14 20:44:13;;;;;;;7.75;3.20;;;;;;;8.49;46.60;99153.25;12774093;22;20063;-81
2022/03/14 20:49:34;;;;;;;8.70;3.58;;;;;;;8.47;46.69;99156.56;12860722;23;20004;-77
2022/03/14 20:54:55;;;;;;;6.72;2.70;;;;;;;8.41;46.69;99167.13;12881007;23;20031;-77
2022/03/14 21:00:17;;;;;;;11.80;6.20;;;;;;;8.32;47.58;99173.91;12918533;23;20021;-80
2022/03/14 21:05:41;;;;;;;9.35;3.45;;;;;;;8.27;47.51;99163.66;12823872;23;20048;-78
2022/03/14 21:11:03;;;;;;;4.93;2.20;;;;;;;8.25;47.79;99163.44;12838784;23;20024;-77
2022/03/14 21:16:25;;;;;;;4.22;2.17;;;;;;;8.20;47.33;99169.91;12830381;23;20025;-80
2022/03/14 21:21:46;;;;;;;4.70;1.80;;;;;;;8.14;47.94;99158.19;12815695;23;20017;-81
2022/03/14 21:27:09;;;;;;;7.38;2.22;;;;;;;8.11;48.14;99162.06;12838733;23;20016;-79
2022/03/14 21:32:30;;;;;;;7.57;2.20;;;;;;;8.09;48.04;99159.06;12879097;23;20017;-78
2022/03/14 21:37:51;;;;;;;6.10;2.38;;;;;;;8.10;48.56;99163.31;12835404;23;20012;-81
2022/03/14 21:43:13;;;;;;;6.88;2.67;;;;;;;8.02;48.49;99157.72;12818235;23;20021;-80
2022/03/14 21:48:34;;;;;;;4.90;2.40;;;;;;;7.95;48.88;99163.22;12817677;23;20077;-79
2022/03/14 21:54:01;;;;;;;7.63;3.25;;;;;;;7.85;48.66;99162.94;12858090;23;20005;-78
2022/03/14 21:59:22;;;;;;;7.45;3.88;;;;;;;7.85;49.06;99176.09;12836331;23;20035;-81
2022/03/14 22:04:44;;;;;;;6.68;3.20;;;;;;;7.85;49.31;99182.41;12836514;23;20013;-78
2022/03/14 22:10:07;;;;;;;6.00;2.40;;;;;;;7.87;49.75;99187.41;12856833;23;20027;-79
2022/03/14 22:15:27;;;;;;;5.55;2.47;;;;;;;7.85;49.46;99176.84;12815628;23;20028;-76
2022/03/14 22:20:50;;;;;;;6.65;2.35;;;;;;;7.85;49.66;99182.41;12835961;23;20032;-79
2022/03/14 22:26:11;;;;;;;6.40;2.53;;;;;;;7.83;49.88;99187.03;12856676;23;20008;-78
2022/03/14 22:31:32;;;;;;;6.05;2.15;;;;;;;7.83;49.65;99184.25;12835940;23;20009;-78
2022/03/14 22:36:53;;;;;;;6.10;2.50;;;;;;;7.79;49.65;99176.22;12857591;23;20028;-80
2022/03/14 22:42:14;;;;;;;6.07;2.10;;;;;;;7.80;50.07;99168.63;12858644;23;20024;-78
2022/03/14 22:47:35;;;;;;;4.43;1.85;;;;;;;7.79;49.73;99173.44;12821275;23;20032;-78
2022/03/14 22:52:56;;;;;;;3.53;1.48;;;;;;;7.76;49.90;99166.19;12856900;23;20005;-77
2022/03/14 22:58:18;;;;;;;7.65;2.10;;;;;;;7.72;49.99;99163.75;12835061;23;20001;-78
2022/03/14 23:09:19;;;;;;;5.75;1.83;;;;;;;7.58;50.38;99151.19;12838568;23;20005;-79
2022/03/14 23:14:44;;;;;;;6.40;2.37;;;;;;;7.52;50.16;99163.72;12856455;23;20044;-75
2022/03/14 23:20:08;;;;;;;6.47;2.17;;;;;;;7.42;50.38;99153.06;12836795;23;20001;-78
2022/03/14 23:25:34;;;;;;;7.10;2.67;;;;;;;7.39;51.31;99147.84;12857814;23;20009;-80
2022/03/14 23:30:57;;;;;;;9.45;2.83;;;;;;;7.37;51.24;99136.53;12859379;23;20007;-78
2022/03/14 23:36:19;;;;;;;4.82;2.50;;;;;;;7.29;50.78;99139.22;12815083;23;20016;-77
